Time;durP1;ratioP1;P1;durP2;ratioP2;P2;SDS_P1;SDS_P2;PMS_P1;PMS_P2;Temp;Humidity;BMP_temperature;BMP_pressure;BME280_temperature;BME280_humidity;BME280_pressure;Samples;Min_cycle;Max_cycle;Signal;HPM_P1;HPM_P2
2021/06/22 00:00:41;;;;;;;3.35;0.90;;;;;;;16.17;90.10;97982.94;5126724;28;20015;-63
2021/06/22 00:03:07;;;;;;;3.92;1.05;;;;;;;15.96;89.75;97984.06;5128543;28;20039;-63
2021/06/22 00:05:32;;;;;;;4.88;0.70;;;;;;;16.11;90.81;97987.72;5128524;28;20026;-63
2021/06/22 00:07:58;;;;;;;3.35;0.93;;;;;;;15.90;90.06;97973.75;5128569;28;20024;-63
2021/06/22 00:10:27;;;;;;;1.58;0.80;;;;;;;15.81;90.17;97963.59;5128379;28;20210;-63
2021/06/22 00:12:53;;;;;;;3.28;1.40;;;;;;;15.82;90.37;97949.38;5128325;28;20016;-63
2021/06/22 00:15:21;;;;;;;2.30;1.27;;;;;;;15.88;90.52;97956.22;5128258;28;20047;-63
2021/06/22 00:17:47;;;;;;;2.05;1.05;;;;;;;15.91;90.95;97962.19;5128455;28;20011;-63
2021/06/22 00:20:14;;;;;;;1.35;1.10;;;;;;;15.82;90.58;97965.31;5128188;28;20023;-63
2021/06/22 00:22:40;;;;;;;2.33;1.15;;;;;;;15.74;90.94;97971.94;5128113;28;20046;-63
2021/06/22 00:25:07;;;;;;;4.07;1.52;;;;;;;15.75;91.08;97973.69;5128063;28;20024;-63
2021/06/22 00:27:33;;;;;;;1.80;1.30;;;;;;;15.73;91.29;97962.28;5109569;28;20084;-63
2021/06/22 00:29:58;;;;;;;4.75;1.20;;;;;;;15.76;91.72;97965.63;5127986;28;20082;-63
2021/06/22 00:32:24;;;;;;;1.67;1.10;;;;;;;15.77;91.30;97959.41;5127933;28;20022;-63
2021/06/22 00:34:50;;;;;;;2.15;1.55;;;;;;;15.74;91.19;97967.50;5127896;28;20257;-63
2021/06/22 00:37:17;;;;;;;2.72;1.90;;;;;;;15.80;91.54;97977.81;5127831;28;20015;-63
2021/06/22 00:39:43;;;;;;;3.72;1.65;;;;;;;15.89;90.70;97977.34;5127766;28;20028;-63
2021/06/22 00:42:09;;;;;;;5.05;1.30;;;;;;;15.89;90.34;97974.72;5127767;28;20027;-63
2021/06/22 00:44:49;;;;;;;1.73;1.15;;;;;;;15.92;91.17;97971.91;5127717;28;20019;-63
2021/06/22 00:47:16;;;;;;;1.83;1.40;;;;;;;16.01;91.59;97970.56;5127582;28;20330;-63
2021/06/22 00:49:42;;;;;;;2.33;1.75;;;;;;;16.17;91.37;97966.19;5127621;28;20082;-63
2021/06/22 00:52:08;;;;;;;3.90;2.30;;;;;;;16.32;91.63;97965.34;5127535;28;20031;-63
2021/06/22 00:54:37;;;;;;;6.25;2.25;;;;;;;16.33;91.22;97967.09;5127502;28;20083;-63
2021/06/22 00:57:06;;;;;;;7.45;2.55;;;;;;;16.38;90.67;97954.41;5127498;28;20126;-63
2021/06/22 00:59:32;;;;;;;2.67;1.80;;;;;;;16.37;89.65;97958.88;5127416;28;20028;-63
2021/06/22 01:01:58;;;;;;;3.90;2.90;;;;;;;16.34;89.96;97959.03;5127455;28;20043;-63
2021/06/22 01:04:25;;;;;;;5.72;2.30;;;;;;;16.33;89.96;97957.31;5127636;28;20094;-63
2021/06/22 01:06:54;;;;;;;6.07;3.55;;;;;;;16.30;90.36;97951.31;5127200;28;20307;-63
2021/06/22 01:09:19;;;;;;;7.63;3.15;;;;;;;16.39;89.74;97951.66;5127252;28;20016;-63
2021/06/22 01:11:44;;;;;;;4.63;2.63;;;;;;;16.29;89.97;97944.25;5126285;28;20065;-63
2021/06/22 01:14:10;;;;;;;3.70;3.00;;;;;;;16.29;90.39;97944.25;5127402;28;20122;-63
2021/06/22 01:16:35;;;;;;;6.85;3.55;;;;;;;16.29;90.38;97937.16;5127046;28;20015;-63
2021/06/22 01:19:03;;;;;;;8.13;3.15;;;;;;;16.32;90.29;97939.66;5127049;28;20058;-63
2021/06/22 01:21:31;;;;;;;3.90;3.22;;;;;;;16.31;90.64;97943.28;5127047;28;20020;-63
2021/06/22 01:24:07;;;;;;;6.57;3.95;;;;;;;16.32;90.49;97934.34;5126957;28;20341;-63
2021/06/22 01:26:35;;;;;;;6.65;3.53;;;;;;;16.33;90.43;97930.75;5126706;28;20046;-63
2021/06/22 01:29:01;;;;;;;7.93;4.38;;;;;;;16.30;90.30;97920.28;5126891;28;20207;-63
2021/06/22 01:31:26;;;;;;;9.23;4.38;;;;;;;16.34;90.21;97916.56;5126808;28;20083;-63
2021/06/22 01:33:52;;;;;;;6.82;4.68;;;;;;;16.24;90.35;97931.25;5126785;28;20023;-63
2021/06/22 01:36:19;;;;;;;7.53;4.45;;;;;;;16.21;90.50;97942.03;5126719;28;20215;-63
2021/06/22 01:38:44;;;;;;;6.18;4.57;;;;;;;16.27;90.65;97936.41;5126605;28;20016;-63
2021/06/22 01:41:10;;;;;;;5.88;4.22;;;;;;;16.33;90.22;97938.72;5126665;28;20027;-63
2021/06/22 01:43:35;;;;;;;5.20;3.60;;;;;;;16.36;89.94;97946.53;5126577;28;20087;-63
2021/06/22 01:46:01;;;;;;;5.47;4.00;;;;;;;16.34;89.95;97948.41;5126577;28;20286;-63
2021/06/22 01:48:26;;;;;;;5.45;4.18;;;;;;;16.33;90.27;97936.06;5126417;28;20035;-63
2021/06/22 01:50:51;;;;;;;5.32;3.65;;;;;;;16.38;90.23;97939.34;5126742;28;20024;-63
2021/06/22 01:53:17;;;;;;;6.57;4.55;;;;;;;16.36;90.38;97935.91;5126390;28;20206;-63
2021/06/22 01:55:48;;;;;;;6.13;4.10;;;;;;;16.39;90.22;97919.81;5126336;28;20086;-63
2021/06/22 01:58:15;;;;;;;5.88;4.25;;;;;;;16.33;90.29;97919.28;5126237;28;20023;-63
2021/06/22 02:00:43;;;;;;;4.68;3.88;;;;;;;16.39;89.93;97919.81;5126485;28;20023;-63
2021/06/22 02:03:15;;;;;;;6.35;3.80;;;;;;;16.39;89.82;97918.97;5126172;28;20368;-63
2021/06/22 02:05:40;;;;;;;;;;;;;;;16.37;90.41;97913.72;5126642;28;20230;-63
2021/06/22 02:08:06;;;;;;;4.93;3.75;;;;;;;16.36;90.13;97912.00;5126013;28;19984;-63
2021/06/22 02:10:31;;;;;;;7.22;3.85;;;;;;;16.44;89.79;97917.81;5126032;28;20257;-63
2021/06/22 02:12:57;;;;;;;4.75;3.65;;;;;;;16.34;90.16;97913.91;5125993;28;20378;-63
2021/06/22 02:15:22;;;;;;;6.57;3.40;;;;;;;16.33;90.23;97898.88;5125959;28;20051;-63
2021/06/22 02:17:48;;;;;;;6.28;3.83;;;;;;;16.32;90.14;97910.44;5125869;28;20023;-63
2021/06/22 02:20:14;;;;;;;6.80;4.10;;;;;;;16.26;90.44;97902.81;5125828;28;20064;-63
2021/06/22 02:22:40;;;;;;;4.72;4.20;;;;;;;16.28;90.50;97908.91;5125763;28;20043;-63
2021/06/22 02:25:08;;;;;;;5.15;3.80;;;;;;;16.24;90.47;97909.16;5125764;28;20019;-63
2021/06/22 02:27:34;;;;;;;6.72;4.32;;;;;;;16.24;90.50;97915.31;5125461;28;20036;-63
2021/06/22 02:30:00;;;;;;;4.25;3.83;;;;;;;16.22;90.92;97906.56;5125665;28;20058;-63
2021/06/22 02:32:26;;;;;;;5.43;4.25;;;;;;;16.28;90.75;97906.25;5125606;28;20023;-63
2021/06/22 02:34:52;;;;;;;8.68;4.50;;;;;;;16.34;90.36;97916.56;5125750;28;20023;-63
2021/06/22 02:37:18;;;;;;;4.28;3.88;;;;;;;16.37;90.44;97911.06;5125522;28;20068;-63
2021/06/22 02:39:45;;;;;;;6.22;4.40;;;;;;;16.36;90.40;97914.66;5125650;28;20078;-63
2021/06/22 02:42:11;;;;;;;6.60;4.40;;;;;;;16.45;90.28;97910.69;5125426;28;20028;-63
2021/06/22 02:44:36;;;;;;;7.20;5.38;;;;;;;16.47;90.51;97917.63;5125371;28;20099;-63
2021/06/22 02:47:02;;;;;;;5.43;4.43;;;;;;;16.57;90.07;97913.53;5125245;28;20192;-63
2021/06/22 02:49:28;;;;;;;6.30;4.80;;;;;;;16.54;89.97;97899.56;5125294;28;20020;-63
2021/06/22 02:51:53;;;;;;;7.95;4.78;;;;;;;16.55;90.28;97899.47;5125246;28;20030;-63
2021/06/22 02:54:19;;;;;;;6.45;4.10;;;;;;;16.52;90.18;97904.94;5125174;28;20027;-63
2021/06/22 02:56:44;;;;;;;6.30;4.32;;;;;;;16.54;90.03;97903.06;5125153;28;20237;-63
2021/06/22 02:59:09;;;;;;;8.20;4.15;;;;;;;16.54;90.04;97903.06;5125020;28;20047;-63
2021/06/22 03:01:35;;;;;;;5.50;3.88;;;;;;;16.58;89.95;97894.00;5125079;28;20218;-63
2021/06/22 03:04:00;;;;;;;4.97;3.28;;;;;;;16.71;89.31;97900.34;5125058;28;20086;-63
2021/06/22 03:06:26;;;;;;;3.97;3.58;;;;;;;16.71;89.51;97888.88;5125008;28;20079;-63
2021/06/22 03:08:51;;;;;;;4.90;3.85;;;;;;;16.60;89.60;97881.50;5124880;28;20028;-63
2021/06/22 03:11:16;;;;;;;6.65;4.07;;;;;;;16.62;89.61;97898.22;5124902;28;20065;-63
2021/06/22 03:13:42;;;;;;;7.13;3.47;;;;;;;16.57;89.61;97894.94;5124854;28;20084;-63
2021/06/22 03:16:07;;;;;;;5.32;4.03;;;;;;;16.61;89.44;97899.13;5124864;28;20024;-63
2021/06/22 03:18:33;;;;;;;6.57;3.88;;;;;;;16.61;89.55;97904.44;5124862;28;20016;-63
2021/06/22 03:20:58;;;;;;;6.22;4.05;;;;;;;16.57;89.73;97902.91;5124799;28;20024;-63
2021/06/22 03:23:24;;;;;;;6.78;3.97;;;;;;;16.61;89.75;97903.63;5124747;28;20024;-63
2021/06/22 03:25:50;;;;;;;5.72;3.58;;;;;;;16.64;89.61;97914.91;5124728;28;20058;-63
2021/06/22 03:28:15;;;;;;;4.95;3.45;;;;;;;16.64;89.79;97914.91;5124658;28;20338;-63
2021/06/22 03:30:45;;;;;;;5.32;3.50;;;;;;;16.72;89.04;97907.38;5124677;28;20019;-63
2021/06/22 03:33:11;;;;;;;7.38;3.38;;;;;;;16.70;88.88;97913.72;5124910;28;20090;-63
2021/06/22 03:35:36;;;;;;;3.47;2.75;;;;;;;16.61;88.89;97912.41;5124182;28;20375;-63
2021/06/22 03:38:03;;;;;;;4.03;3.10;;;;;;;16.59;89.25;97916.97;5124586;28;20051;-63
2021/06/22 03:40:28;;;;;;;4.70;3.78;;;;;;;16.54;89.40;97923.47;5124548;28;20063;-63
2021/06/22 03:42:54;;;;;;;5.60;5.00;;;;;;;16.52;89.76;97936.81;5124521;28;20015;-63
2021/06/22 03:45:19;;;;;;;8.52;5.35;;;;;;;16.56;89.88;97941.06;5124497;28;20315;-63
2021/06/22 03:47:45;;;;;;;11.00;6.97;;;;;;;16.58;90.11;97947.13;5124392;28;20023;-63
2021/06/22 03:50:11;;;;;;;11.07;7.07;;;;;;;16.60;90.03;97950.56;5124663;28;20024;-63
2021/06/22 03:52:37;;;;;;;9.32;6.90;;;;;;;16.60;89.74;97949.69;5124450;28;20064;-63
2021/06/22 03:55:26;;;;;;;7.97;7.18;;;;;;;16.64;89.56;97957.41;5124457;28;20027;-63
2021/06/22 03:57:53;;;;;;;10.32;6.70;;;;;;;16.56;89.54;97959.66;5124610;28;20184;-63
2021/06/22 04:00:20;;;;;;;9.93;7.72;;;;;;;16.57;89.21;97961.34;5124319;28;20342;-63
2021/06/22 04:02:45;;;;;;;11.80;8.52;;;;;;;16.50;89.56;97965.28;5106150;28;20024;-63
2021/06/22 04:05:10;;;;;;;9.77;7.70;;;;;;;16.56;89.57;97964.97;5124283;28;20080;-63
2021/06/22 04:07:36;;;;;;;15.50;8.05;;;;;;;16.38;89.69;97962.38;5124220;28;20023;-63
2021/06/22 04:10:02;;;;;;;10.85;8.70;;;;;;;16.45;89.03;97967.31;5124276;28;20020;-63
2021/06/22 04:12:28;;;;;;;9.52;8.20;;;;;;;16.34;89.21;97960.81;5124164;28;20359;-63
2021/06/22 04:14:53;;;;;;;11.93;8.73;;;;;;;16.32;89.38;97975.97;5124206;28;20023;-63
2021/06/22 04:17:19;;;;;;;11.18;9.07;;;;;;;16.40;88.96;97979.97;5124174;28;20026;-63
2021/06/22 04:19:44;;;;;;;10.90;8.45;;;;;;;16.35;89.07;97982.00;5124170;28;20028;-63
2021/06/22 04:22:10;;;;;;;10.00;8.88;;;;;;;16.44;88.24;97988.66;5124108;28;20192;-63
2021/06/22 04:24:35;;;;;;;10.25;9.25;;;;;;;16.25;88.18;97991.38;5124083;28;20338;-63
2021/06/22 04:27:01;;;;;;;13.85;9.05;;;;;;;16.29;88.71;97987.63;5123886;28;20043;-63
2021/06/22 04:29:26;;;;;;;9.95;8.48;;;;;;;16.33;88.05;97999.78;5124053;28;20024;-63
2021/06/22 04:31:52;;;;;;;8.70;7.80;;;;;;;16.31;88.06;98008.78;5124301;28;20023;-63
2021/06/22 04:34:19;;;;;;;9.95;8.52;;;;;;;16.32;88.06;98003.41;5124001;28;20020;-63
2021/06/22 04:36:44;;;;;;;12.07;7.82;;;;;;;16.31;87.88;98007.00;5124022;28;20019;-63
2021/06/22 04:39:10;;;;;;;12.90;8.23;;;;;;;16.32;88.36;97998.09;5123995;28;20034;-63
2021/06/22 04:41:35;;;;;;;9.90;8.80;;;;;;;16.19;88.39;98001.44;5123999;28;20047;-63
2021/06/22 04:44:00;;;;;;;9.65;7.85;;;;;;;16.19;87.56;97997.00;5123999;28;20311;-63
2021/06/22 04:46:26;;;;;;;8.07;7.15;;;;;;;16.28;87.21;98003.63;5124121;28;20050;-63
2021/06/22 04:48:52;;;;;;;8.15;7.35;;;;;;;16.25;86.74;98004.66;5127550;28;20222;-63
2021/06/22 04:51:17;;;;;;;7.65;6.85;;;;;;;16.19;86.89;98007.63;5127592;28;20087;-63
2021/06/22 04:53:43;;;;;;;7.50;6.60;;;;;;;16.12;86.77;98006.25;5127587;28;20059;-63
2021/06/22 04:56:09;;;;;;;7.10;5.88;;;;;;;16.21;85.75;98000.47;5127505;28;20026;-63
2021/06/22 04:58:35;;;;;;;9.07;6.85;;;;;;;16.26;86.78;98003.72;5127632;28;20080;-63
2021/06/22 05:01:02;;;;;;;7.35;6.50;;;;;;;16.19;85.71;97998.78;5127389;28;20088;-63
2021/06/22 05:03:30;;;;;;;11.38;6.43;;;;;;;16.21;85.91;97997.81;5127366;28;20072;-63
2021/06/22 05:05:55;;;;;;;7.43;6.60;;;;;;;16.25;85.87;98002.00;5127309;28;20028;-63
2021/06/22 05:08:21;;;;;;;6.85;5.75;;;;;;;16.26;85.67;98001.06;5127204;28;20028;-63
2021/06/22 05:10:46;;;;;;;6.82;5.80;;;;;;;16.20;84.60;98009.34;5127271;28;20047;-63
2021/06/22 05:13:11;;;;;;;7.75;5.90;;;;;;;16.27;85.42;98016.06;5127206;28;20027;-63
2021/06/22 05:15:37;;;;;;;6.38;5.65;;;;;;;16.23;85.17;98022.47;5127182;28;20019;-63
2021/06/22 05:18:03;;;;;;;7.55;6.07;;;;;;;16.27;85.69;98015.22;5127158;28;20311;-63
2021/06/22 05:20:28;;;;;;;6.97;5.88;;;;;;;16.24;85.19;98010.94;5127045;28;20084;-62
2021/06/22 05:22:54;;;;;;;7.75;6.38;;;;;;;16.33;85.45;97999.78;5127004;28;20022;-63
2021/06/22 05:25:19;;;;;;;8.40;6.00;;;;;;;16.30;85.83;98002.59;5126964;28;20028;-63
2021/06/22 05:27:44;;;;;;;10.43;6.32;;;;;;;16.31;84.78;98012.31;5126719;28;20406;-63
2021/06/22 05:30:11;;;;;;;7.18;6.10;;;;;;;16.44;85.34;98010.78;5126915;28;20027;-63
2021/06/22 05:32:36;;;;;;;9.57;5.90;;;;;;;16.37;84.84;98004.03;5108655;28;20317;-63
2021/06/22 05:35:02;;;;;;;6.97;5.57;;;;;;;16.40;84.62;98010.97;5126843;28;20050;-63
2021/06/22 05:37:28;;;;;;;6.50;5.63;;;;;;;16.47;83.54;98018.56;5126732;28;20237;-63
2021/06/22 05:39:53;;;;;;;8.05;5.22;;;;;;;16.34;83.83;98017.47;5126707;28;20061;-63
2021/06/22 05:42:19;;;;;;;5.35;4.82;;;;;;;16.39;84.01;98007.44;5126642;28;20019;-63
2021/06/22 05:44:44;;;;;;;6.05;4.65;;;;;;;16.40;83.78;98010.97;5126611;28;20085;-63
2021/06/22 05:47:10;;;;;;;5.28;4.70;;;;;;;16.39;84.20;98019.88;5126412;28;20027;-63
2021/06/22 05:49:36;;;;;;;5.28;4.78;;;;;;;16.48;84.75;98014.97;5126478;28;20027;-63
2021/06/22 05:52:02;;;;;;;5.90;4.57;;;;;;;16.57;84.17;98024.25;5126503;28;20016;-63
2021/06/22 05:54:28;;;;;;;5.53;4.15;;;;;;;16.44;83.44;98026.69;5126369;28;20020;-63
2021/06/22 05:56:53;;;;;;;8.35;4.45;;;;;;;16.40;83.01;98022.47;5126279;28;20068;-63
2021/06/22 05:59:19;;;;;;;4.82;4.32;;;;;;;16.14;85.01;98024.75;5125961;28;20086;-63
2021/06/22 06:01:44;;;;;;;5.18;4.25;;;;;;;16.28;85.06;98033.72;5126235;28;20042;-63
2021/06/22 06:04:10;;;;;;;5.05;4.22;;;;;;;16.32;85.06;98040.59;5126223;28;20215;-63
2021/06/22 06:06:35;;;;;;;6.97;4.25;;;;;;;16.36;83.57;98038.63;5126186;28;20020;-63
2021/06/22 06:09:00;;;;;;;7.32;4.70;;;;;;;16.32;84.87;98045.03;5126053;28;20027;-63
2021/06/22 06:11:26;;;;;;;6.00;4.43;;;;;;;16.33;83.25;98058.22;5126025;28;20046;-63
2021/06/22 06:13:51;;;;;;;4.97;4.03;;;;;;;16.35;83.72;98060.81;5126003;28;20015;-63
2021/06/22 06:16:17;;;;;;;4.80;4.05;;;;;;;16.48;85.26;98065.44;5125944;28;20020;-63
2021/06/22 06:18:42;;;;;;;5.72;4.28;;;;;;;16.41;83.00;98061.34;5126176;28;20039;-63
2021/06/22 06:21:07;;;;;;;4.40;4.00;;;;;;;16.53;83.52;98075.84;5126115;28;20042;-63
2021/06/22 06:23:39;;;;;;;5.57;3.70;;;;;;;16.61;83.26;98074.50;5126085;28;20019;-63
2021/06/22 06:26:05;;;;;;;4.75;4.05;;;;;;;16.54;83.60;98073.09;5125807;28;20291;-63
2021/06/22 06:28:37;;;;;;;6.72;4.50;;;;;;;16.55;82.82;98069.50;5125704;28;20032;-63
2021/06/22 06:31:03;;;;;;;4.00;3.60;;;;;;;16.56;83.35;98071.25;5125672;28;20090;-63
2021/06/22 06:33:28;;;;;;;4.53;3.75;;;;;;;16.60;82.65;98072.78;5125571;28;20082;-63
2021/06/22 06:35:54;;;;;;;8.00;4.18;;;;;;;16.67;82.74;98074.19;5125551;28;20023;-63
2021/06/22 06:38:20;;;;;;;4.82;3.80;;;;;;;16.77;83.31;98066.59;5125484;28;20023;-63
2021/06/22 06:40:46;;;;;;;5.45;4.38;;;;;;;16.73;84.23;98068.53;5125444;28;20020;-63
2021/06/22 06:43:11;;;;;;;4.47;3.80;;;;;;;16.77;82.87;98070.09;5125439;28;20311;-63
2021/06/22 06:45:37;;;;;;;6.03;4.00;;;;;;;16.58;82.79;98076.47;5125384;28;20019;-63
2021/06/22 06:48:03;;;;;;;6.20;3.63;;;;;;;16.54;83.20;98073.09;5125283;28;20016;-63
2021/06/22 06:50:28;;;;;;;4.03;3.45;;;;;;;16.54;83.16;98083.72;5125243;28;20026;-63
2021/06/22 06:52:54;;;;;;;5.50;3.72;;;;;;;16.57;82.80;98082.69;5125237;28;20019;-63
2021/06/22 06:55:28;;;;;;;3.92;3.42;;;;;;;16.69;82.99;98082.94;5125222;28;20043;-63
2021/06/22 06:57:59;;;;;;;5.65;3.75;;;;;;;16.70;82.69;98084.66;5125109;28;20019;-63
2021/06/22 07:00:25;;;;;;;5.70;3.42;;;;;;;16.72;81.95;98085.44;5125118;28;20090;-63
2021/06/22 07:02:51;;;;;;;4.25;3.78;;;;;;;16.82;82.42;98088.47;5125012;28;20030;-63
2021/06/22 07:05:17;;;;;;;4.22;3.70;;;;;;;16.87;82.56;98097.91;5125051;28;20028;-63
2021/06/22 07:07:43;;;;;;;4.20;3.45;;;;;;;16.81;82.00;98098.22;5124896;28;20023;-63
2021/06/22 07:10:09;;;;;;;4.15;3.70;;;;;;;16.97;81.68;98099.16;5124538;28;20078;-63
2021/06/22 07:12:35;;;;;;;4.20;3.40;;;;;;;17.18;82.58;98100.66;5124894;28;20055;-63
2021/06/22 07:15:00;;;;;;;5.57;3.80;;;;;;;17.13;81.81;98105.38;5124889;28;20035;-63
2021/06/22 07:17:26;;;;;;;4.13;3.35;;;;;;;17.18;81.30;98113.94;5125126;28;20386;-63
2021/06/22 07:19:51;;;;;;;4.30;3.20;;;;;;;17.28;81.86;98109.84;5124855;28;20046;-63
2021/06/22 07:22:16;;;;;;;4.00;3.53;;;;;;;17.39;82.04;98113.72;5124810;28;20051;-63
2021/06/22 07:24:42;;;;;;;4.22;3.70;;;;;;;17.51;82.04;98111.28;5124730;28;20068;-63
2021/06/22 07:27:08;;;;;;;3.75;3.30;;;;;;;17.23;81.41;98119.88;5124444;28;20047;-63
2021/06/22 07:29:33;;;;;;;6.13;3.42;;;;;;;17.31;81.37;98123.94;5124935;28;20047;-63
2021/06/22 07:31:59;;;;;;;5.63;3.45;;;;;;;17.31;81.74;98119.47;5124670;28;20085;-63
2021/06/22 07:34:24;;;;;;;6.05;3.40;;;;;;;17.20;81.96;98128.03;5124637;28;20251;-63
2021/06/22 07:36:49;;;;;;;4.32;3.53;;;;;;;17.22;82.07;98131.44;5124602;28;20091;-63
2021/06/22 07:39:15;;;;;;;3.40;3.10;;;;;;;17.34;82.33;98134.41;5124552;28;20049;-63
2021/06/22 07:41:40;;;;;;;4.13;3.72;;;;;;;17.31;83.44;98134.56;5106360;28;20269;-63
2021/06/22 07:44:06;;;;;;;3.97;3.10;;;;;;;17.24;81.62;98129.56;5124510;28;20083;-63
2021/06/22 07:46:31;;;;;;;3.30;3.00;;;;;;;17.22;81.14;98131.44;5124761;28;20087;-63
2021/06/22 07:48:57;;;;;;;4.65;3.40;;;;;;;17.22;81.08;98131.44;5124659;28;20019;-63
2021/06/22 07:51:22;;;;;;;3.67;3.30;;;;;;;17.17;81.42;98136.16;5124429;28;20015;-63
2021/06/22 07:53:48;;;;;;;4.95;3.60;;;;;;;16.97;81.27;98140.81;5124417;28;20023;-63
2021/06/22 07:56:13;;;;;;;5.90;3.83;;;;;;;16.98;81.76;98137.22;5124378;28;20027;-63
2021/06/22 07:58:39;;;;;;;3.90;3.50;;;;;;;16.95;82.23;98138.25;5124343;28;20094;-63
2021/06/22 08:01:04;;;;;;;4.13;3.72;;;;;;;16.97;82.91;98141.69;5124355;28;20357;-63
2021/06/22 08:03:30;;;;;;;4.55;4.10;;;;;;;16.93;83.40;98142.78;5124342;28;20294;-63
2021/06/22 08:05:55;;;;;;;5.03;4.30;;;;;;;16.92;82.75;98146.38;5124330;28;20027;-63
2021/06/22 08:08:22;;;;;;;5.57;3.85;;;;;;;16.83;83.54;98146.84;5124223;28;20028;-63
2021/06/22 08:10:51;;;;;;;4.15;3.75;;;;;;;16.94;83.13;98141.84;5124250;28;20023;-63
2021/06/22 08:13:16;;;;;;;5.90;3.95;;;;;;;16.91;83.56;98136.69;5124243;28;20020;-63
2021/06/22 08:15:42;;;;;;;5.70;4.45;;;;;;;16.96;83.57;98139.94;5124191;28;20024;-63
2021/06/22 08:18:08;;;;;;;5.85;3.85;;;;;;;16.99;83.23;98134.47;5124163;28;20024;-63
2021/06/22 08:20:36;;;;;;;6.20;4.75;;;;;;;16.94;84.04;98136.53;5124574;28;20024;-63
2021/06/22 08:23:02;;;;;;;5.45;4.18;;;;;;;17.02;83.96;98150.28;5128233;28;20024;-63
2021/06/22 08:25:28;;;;;;;5.45;4.70;;;;;;;17.09;83.88;98151.66;5127998;28;20052;-63
2021/06/22 08:27:54;;;;;;;5.47;4.38;;;;;;;17.05;84.66;98155.44;5128031;28;20030;-63
2021/06/22 08:30:22;;;;;;;6.38;4.30;;;;;;;17.00;84.19;98152.13;5128064;28;20319;-63
2021/06/22 08:32:48;;;;;;;4.60;4.15;;;;;;;17.15;83.84;98151.34;5127989;28;20083;-63
2021/06/22 08:35:14;;;;;;;5.00;4.50;;;;;;;17.10;83.93;98153.41;5128184;28;20027;-63
2021/06/22 08:37:40;;;;;;;5.22;4.65;;;;;;;17.08;85.15;98144.63;5127873;28;20211;-63
2021/06/22 08:40:07;;;;;;;6.53;5.30;;;;;;;17.14;85.03;98144.31;5127878;28;20023;-63
2021/06/22 08:42:35;;;;;;;6.18;4.75;;;;;;;17.13;84.82;98145.25;5127723;28;20020;-63
2021/06/22 08:45:02;;;;;;;5.57;4.95;;;;;;;17.23;85.26;98138.50;5109588;28;20026;-63
2021/06/22 08:47:27;;;;;;;4.75;4.30;;;;;;;17.27;84.44;98146.31;5127641;28;20023;-63
2021/06/22 08:49:56;;;;;;;5.43;4.13;;;;;;;17.38;85.71;98141.28;5127680;28;20346;-63
2021/06/22 08:52:24;;;;;;;7.05;4.85;;;;;;;17.44;85.45;98147.16;5127626;28;20050;-63
2021/06/22 08:54:54;;;;;;;5.70;5.10;;;;;;;17.44;85.54;98140.97;5127831;28;20015;-63
2021/06/22 08:57:20;;;;;;;8.73;5.20;;;;;;;17.41;84.57;98147.28;5127419;28;20016;-63
2021/06/22 08:59:46;;;;;;;7.63;4.60;;;;;;;17.40;83.59;98152.69;5127458;28;20027;-63
2021/06/22 09:02:13;;;;;;;7.60;5.30;;;;;;;17.49;84.69;98160.22;5127673;28;20023;-63
2021/06/22 09:04:38;;;;;;;5.53;5.03;;;;;;;17.38;83.59;98157.22;5127387;28;20027;-63
2021/06/22 09:07:04;;;;;;;4.72;4.22;;;;;;;17.46;84.24;98153.25;5127274;28;20020;-63
2021/06/22 09:09:37;;;;;;;5.45;4.95;;;;;;;17.40;84.58;98155.34;5127303;28;20016;-63
2021/06/22 09:12:09;;;;;;;5.72;5.15;;;;;;;17.40;85.45;98166.00;5127543;28;20051;-63
2021/06/22 09:14:40;;;;;;;5.67;5.17;;;;;;;17.47;84.23;98164.75;5127305;28;20145;-63
2021/06/22 09:17:06;;;;;;;7.40;5.27;;;;;;;17.30;85.56;98167.44;5127187;28;20254;-63
2021/06/22 09:19:32;;;;;;;5.90;5.28;;;;;;;17.41;85.53;98178.34;5127154;28;20019;-63
2021/06/22 09:22:14;;;;;;;5.20;4.70;;;;;;;17.40;84.49;98176.63;5126962;28;20027;-63
2021/06/22 09:25:00;;;;;;;6.68;4.88;;;;;;;17.57;84.77;98172.16;5127050;28;20019;-63
2021/06/22 09:27:45;;;;;;;5.85;4.80;;;;;;;17.58;83.35;98180.97;5126688;28;20063;-63
2021/06/22 09:30:10;;;;;;;6.25;4.80;;;;;;;17.58;84.05;98180.97;5126886;28;20033;-63
2021/06/22 09:32:36;;;;;;;6.18;5.47;;;;;;;17.48;85.16;98177.09;5126133;28;20047;-63
2021/06/22 09:35:19;;;;;;;5.43;4.90;;;;;;;17.51;85.58;98179.59;5126825;28;20020;-63
2021/06/22 09:37:55;;;;;;;6.25;5.40;;;;;;;17.57;84.79;98179.28;5108612;28;20042;-63
2021/06/22 09:40:27;;;;;;;8.15;5.18;;;;;;;17.67;84.69;98183.16;5126974;28;20309;-63
2021/06/22 09:42:55;;;;;;;6.53;5.53;;;;;;;17.66;84.09;98179.66;5126683;28;20023;-63
2021/06/22 09:45:22;;;;;;;6.60;5.00;;;;;;;17.64;84.59;98180.66;5126536;28;20027;-63
2021/06/22 09:47:47;;;;;;;5.75;4.70;;;;;;;17.63;85.36;98189.59;5126464;28;20028;-63
2021/06/22 09:50:41;;;;;;;5.97;4.70;;;;;;;17.76;85.69;98190.63;5126517;28;20095;-63
2021/06/22 09:53:26;;;;;;;5.32;4.82;;;;;;;17.76;85.82;98196.81;5126427;28;20023;-63
2021/06/22 09:55:52;;;;;;;5.30;4.80;;;;;;;17.61;84.52;98196.78;5126462;28;20019;-63
2021/06/22 09:58:41;;;;;;;5.53;4.82;;;;;;;17.63;85.43;98200.22;5126281;28;20368;-63
2021/06/22 10:01:26;;;;;;;5.68;4.88;;;;;;;17.59;84.26;98198.69;5126531;28;20031;-63
2021/06/22 10:03:52;;;;;;;8.93;5.25;;;;;;;17.55;84.31;98207.75;5126273;28;20074;-63
2021/06/22 10:06:18;;;;;;;6.85;4.57;;;;;;;17.60;84.34;98205.72;5126206;28;20026;-63
2021/06/22 10:08:54;;;;;;;5.95;5.35;;;;;;;17.59;85.30;98204.00;5126085;28;20215;-63
2021/06/22 10:11:36;;;;;;;6.28;5.43;;;;;;;17.70;85.00;98201.63;5126079;28;20020;-63
2021/06/22 10:14:03;;;;;;;;;;;;;;;17.71;85.25;98198.00;5126485;28;20015;-63
2021/06/22 10:16:31;;;;;;;12.38;5.68;;;;;;;17.63;85.31;98201.09;5126262;28;20004;-63
2021/06/22 10:18:57;;;;;;;5.03;4.53;;;;;;;17.73;86.45;98206.78;5125928;28;20240;-63
2021/06/22 10:21:22;;;;;;;5.00;4.50;;;;;;;17.71;85.78;98200.66;5125917;28;20019;-63
2021/06/22 10:23:50;;;;;;;9.75;5.18;;;;;;;17.78;85.94;98200.25;5125841;28;20019;-63
2021/06/22 10:26:15;;;;;;;5.15;4.22;;;;;;;17.79;84.82;98195.78;5125750;28;20349;-63
2021/06/22 10:28:44;;;;;;;5.70;5.10;;;;;;;17.78;84.71;98191.41;5125742;28;20082;-63
2021/06/22 10:31:10;;;;;;;5.45;4.80;;;;;;;17.79;85.52;98186.00;5125661;28;20072;-63
2021/06/22 10:33:36;;;;;;;5.22;4.72;;;;;;;17.76;85.30;98201.28;5125619;28;20319;-63
2021/06/22 10:36:01;;;;;;;4.88;4.38;;;;;;;17.78;85.31;98207.41;5125608;28;20020;-63
2021/06/22 10:38:35;;;;;;;5.20;4.53;;;;;;;17.81;84.96;98210.72;5125565;28;20211;-63
2021/06/22 10:41:01;;;;;;;5.00;4.32;;;;;;;17.85;84.98;98211.44;5125586;28;20028;-63
2021/06/22 10:43:53;;;;;;;5.03;4.50;;;;;;;17.80;85.22;98209.03;5125397;28;20028;-63
2021/06/22 10:46:20;;;;;;;7.07;4.87;;;;;;;17.82;85.60;98203.63;5121061;28;20039;-63
2021/06/22 10:48:52;;;;;;;4.68;4.22;;;;;;;17.75;85.84;98200.41;5125314;28;20016;-63
2021/06/22 10:51:39;;;;;;;6.82;4.18;;;;;;;17.72;85.76;98205.06;5125305;28;20058;-63
2021/06/22 10:54:04;;;;;;;7.15;4.88;;;;;;;17.73;85.91;98212.97;5125306;28;20054;-63
2021/06/22 10:56:32;;;;;;;4.82;4.15;;;;;;;17.82;86.42;98211.59;5125244;28;20023;-63
2021/06/22 10:59:12;;;;;;;5.53;4.53;;;;;;;17.64;85.76;98217.91;5125379;28;20038;-63
2021/06/22 11:01:53;;;;;;;5.20;4.63;;;;;;;17.82;86.80;98222.25;5125399;28;20020;-63
2021/06/22 11:04:20;;;;;;;10.13;5.28;;;;;;;17.78;86.89;98220.72;5125094;28;20030;-63
2021/06/22 11:07:15;;;;;;;5.78;4.82;;;;;;;17.80;85.99;98221.47;5125099;28;20022;-63
2021/06/22 11:09:42;;;;;;;6.95;5.30;;;;;;;17.87;85.96;98225.53;5125046;28;20020;-63
2021/06/22 11:12:19;;;;;;;6.00;4.80;;;;;;;18.03;86.10;98227.25;5124946;28;20076;-63
2021/06/22 11:15:05;;;;;;;6.18;4.80;;;;;;;18.34;85.39;98221.03;5124912;28;20192;-63
2021/06/22 11:17:42;;;;;;;5.45;4.88;;;;;;;18.35;84.59;98222.78;5124848;28;20091;-63
2021/06/22 11:20:13;;;;;;;6.57;4.68;;;;;;;18.45;83.91;98224.00;5124786;28;20064;-63
2021/06/22 11:23:05;;;;;;;7.70;4.70;;;;;;;18.58;85.10;98217.03;5124752;28;20031;-63
2021/06/22 11:25:49;;;;;;;5.32;4.82;;;;;;;18.57;85.16;98212.66;5124680;28;20184;-63
2021/06/22 11:28:16;;;;;;;7.85;4.93;;;;;;;18.58;85.89;98204.53;5124634;28;20028;-63
2021/06/22 11:30:48;;;;;;;6.18;5.57;;;;;;;18.52;85.13;98214.72;5124693;28;20060;-63
2021/06/22 11:33:30;;;;;;;7.00;5.40;;;;;;;18.35;86.10;98212.13;5124887;28;20043;-63
2021/06/22 11:36:20;;;;;;;5.90;4.90;;;;;;;18.33;85.64;98208.69;5124650;28;20030;-63